sensor_id;sensor_type;location;lat;lon;timestamp;pressure;altitude;pressure_sealevel;temperature;humidity
38022;BME280;23832;43.216;27.946;2022-09-30T00:01:40;100332.66;;;23.79;100.00
38022;BME280;23832;43.216;27.946;2022-09-30T00:03:42;100323.50;;;23.75;100.00
38022;BME280;23832;43.216;27.946;2022-09-30T00:05:44;100319.22;;;23.74;100.00
38022;BME280;23832;43.216;27.946;2022-09-30T00:07:46;100321.38;;;23.72;100.00
38022;BME280;23832;43.216;27.946;2022-09-30T00:09:48;100318.38;;;23.69;100.00
38022;BME280;23832;43.216;27.946;2022-09-30T00:11:50;100324.03;;;23.67;100.00
38022;BME280;23832;43.216;27.946;2022-09-30T00:13:52;100320.81;;;23.65;100.00
38022;BME280;23832;43.216;27.946;2022-09-30T00:15:54;100318.38;;;23.64;100.00
38022;BME280;23832;43.216;27.946;2022-09-30T00:17:58;100325.63;;;23.63;100.00
38022;BME280;23832;43.216;27.946;2022-09-30T00:20:00;100326.16;;;23.60;100.00
38022;BME280;23832;43.216;27.946;2022-09-30T00:22:03;100338.25;;;23.58;100.00
38022;BME280;23832;43.216;27.946;2022-09-30T00:24:06;100335.03;;;23.56;100.00
38022;BME280;23832;43.216;27.946;2022-09-30T00:26:12;100337.97;;;23.49;100.00
38022;BME280;23832;43.216;27.946;2022-09-30T00:28:14;100330.94;;;23.43;100.00
38022;BME280;23832;43.216;27.946;2022-09-30T00:30:16;100346.03;;;23.49;100.00
38022;BME280;23832;43.216;27.946;2022-09-30T00:32:18;100346.03;;;23.49;100.00
38022;BME280;23832;43.216;27.946;2022-09-30T00:34:21;100346.28;;;23.47;100.00
38022;BME280;23832;43.216;27.946;2022-09-30T00:36:23;100351.94;;;23.46;100.00
38022;BME280;23832;43.216;27.946;2022-09-30T00:38:25;100347.63;;;23.45;100.00
38022;BME280;23832;43.216;27.946;2022-09-30T00:40:27;100349.50;;;23.44;100.00
38022;BME280;23832;43.216;27.946;2022-09-30T00:42:29;100344.38;;;23.43;100.00
38022;BME280;23832;43.216;27.946;2022-09-30T00:44:47;100351.38;;;23.44;100.00
38022;BME280;23832;43.216;27.946;2022-09-30T00:46:50;100358.91;;;23.37;100.00
38022;BME280;23832;43.216;27.946;2022-09-30T00:48:52;100358.91;;;23.37;100.00
38022;BME280;23832;43.216;27.946;2022-09-30T00:50:57;100363.75;;;23.40;100.00
38022;BME280;23832;43.216;27.946;2022-09-30T00:53:07;100362.69;;;23.41;100.00
38022;BME280;23832;43.216;27.946;2022-09-30T00:55:21;100356.75;;;23.39;100.00
38022;BME280;23832;43.216;27.946;2022-09-30T00:57:26;100359.72;;;23.37;100.00
38022;BME280;23832;43.216;27.946;2022-09-30T00:59:31;100363.22;;;23.38;100.00
38022;BME280;23832;43.216;27.946;2022-09-30T01:01:37;100355.16;;;23.38;100.00
38022;BME280;23832;43.216;27.946;2022-09-30T01:03:42;100365.63;;;23.39;100.00
38022;BME280;23832;43.216;27.946;2022-09-30T01:05:45;100368.31;;;23.39;100.00
38022;BME280;23832;43.216;27.946;2022-09-30T01:07:49;100372.91;;;23.39;100.00
38022;BME280;23832;43.216;27.946;2022-09-30T01:09:51;100364.28;;;23.37;100.00
38022;BME280;23832;43.216;27.946;2022-09-30T01:11:53;100365.09;;;23.37;100.00
38022;BME280;23832;43.216;27.946;2022-09-30T01:13:57;100358.06;;;23.36;100.00
38022;BME280;23832;43.216;27.946;2022-09-30T01:16:14;100364.28;;;23.37;100.00
38022;BME280;23832;43.216;27.946;2022-09-30T01:18:21;100362.31;;;23.17;100.00
38022;BME280;23832;43.216;27.946;2022-09-30T01:22:45;100363.31;;;22.96;100.00
38022;BME280;23832;43.216;27.946;2022-09-30T01:24:59;100359.75;;;22.90;100.00
38022;BME280;23832;43.216;27.946;2022-09-30T01:31:47;100366.13;;;22.79;100.00
38022;BME280;23832;43.216;27.946;2022-09-30T01:33:51;100362.09;;;22.76;100.00
38022;BME280;23832;43.216;27.946;2022-09-30T01:36:01;100359.41;;;22.76;100.00
38022;BME280;23832;43.216;27.946;2022-09-30T01:38:08;100363.16;;;22.75;100.00
38022;BME280;23832;43.216;27.946;2022-09-30T01:40:14;100362.59;;;22.73;100.00
38022;BME280;23832;43.216;27.946;2022-09-30T01:42:22;100367.16;;;22.73;100.00
38022;BME280;23832;43.216;27.946;2022-09-30T01:44:29;100368.22;;;22.72;100.00
38022;BME280;23832;43.216;27.946;2022-09-30T01:46:35;100362.31;;;22.70;100.00
38022;BME280;23832;43.216;27.946;2022-09-30T01:48:39;100362.56;;;22.68;100.00
38022;BME280;23832;43.216;27.946;2022-09-30T01:50:45;100365.78;;;22.65;100.00
38022;BME280;23832;43.216;27.946;2022-09-30T01:52:51;100369.53;;;22.64;100.00
38022;BME280;23832;43.216;27.946;2022-09-30T01:54:58;100365.22;;;22.63;100.00
38022;BME280;23832;43.216;27.946;2022-09-30T01:57:02;100366.28;;;22.62;100.00
38022;BME280;23832;43.216;27.946;2022-09-30T01:59:07;100376.22;;;22.61;100.00
38022;BME280;23832;43.216;27.946;2022-09-30T02:01:12;100377.56;;;22.59;100.00
38022;BME280;23832;43.216;27.946;2022-09-30T02:03:17;100383.19;;;22.57;100.00
38022;BME280;23832;43.216;27.946;2022-09-30T02:05:24;100385.56;;;22.54;100.00
38022;BME280;23832;43.216;27.946;2022-09-30T02:07:29;100385.03;;;22.52;100.00
38022;BME280;23832;43.216;27.946;2022-09-30T02:09:35;100386.63;;;22.48;100.00
38022;BME280;23832;43.216;27.946;2022-09-30T02:11:39;100387.69;;;22.47;100.00
38022;BME280;23832;43.216;27.946;2022-09-30T02:13:42;100381.75;;;22.45;100.00
38022;BME280;23832;43.216;27.946;2022-09-30T02:15:47;100389.53;;;22.41;100.00
38022;BME280;23832;43.216;27.946;2022-09-30T02:17:54;100393.28;;;22.40;100.00
38022;BME280;23832;43.216;27.946;2022-09-30T02:19:58;100396.44;;;22.37;100.00
38022;BME280;23832;43.216;27.946;2022-09-30T02:22:03;100396.72;;;22.35;100.00
38022;BME280;23832;43.216;27.946;2022-09-30T02:24:07;100397.25;;;22.32;100.00
38022;BME280;23832;43.216;27.946;2022-09-30T02:26:11;100406.38;;;22.31;100.00
38022;BME280;23832;43.216;27.946;2022-09-30T02:28:15;100409.53;;;22.28;100.00
38022;BME280;23832;43.216;27.946;2022-09-30T02:30:19;100418.94;;;22.26;100.00
38022;BME280;23832;43.216;27.946;2022-09-30T02:32:23;100411.13;;;22.24;100.00
38022;BME280;23832;43.216;27.946;2022-09-30T02:34:26;100408.72;;;22.23;100.00
38022;BME280;23832;43.216;27.946;2022-09-30T02:36:32;100419.44;;;22.23;100.00
38022;BME280;23832;43.216;27.946;2022-09-30T02:38:38;100417.81;;;22.22;100.00
38022;BME280;23832;43.216;27.946;2022-09-30T02:40:42;100417.81;;;22.22;100.00
38022;BME280;23832;43.216;27.946;2022-09-30T02:42:46;100418.91;;;22.21;100.00
38022;BME280;23832;43.216;27.946;2022-09-30T02:44:48;100428.81;;;22.20;100.00
38022;BME280;23832;43.216;27.946;2022-09-30T02:46:53;100428.81;;;22.20;100.00
38022;BME280;23832;43.216;27.946;2022-09-30T02:48:58;100429.63;;;22.21;100.00
38022;BME280;23832;43.216;27.946;2022-09-30T02:51:01;100425.88;;;22.22;100.00
38022;BME280;23832;43.216;27.946;2022-09-30T02:53:13;100432.06;;;22.22;100.00
38022;BME280;23832;43.216;27.946;2022-09-30T02:55:20;100424.00;;;22.22;100.00
38022;BME280;23832;43.216;27.946;2022-09-30T02:57:29;100422.66;;;22.20;100.00
38022;BME280;23832;43.216;27.946;2022-09-30T02:59:35;100431.19;;;22.17;100.00
38022;BME280;23832;43.216;27.946;2022-09-30T03:01:38;100428.47;;;22.12;100.00
38022;BME280;23832;43.216;27.946;2022-09-30T03:03:41;100432.72;;;22.07;100.00
38022;BME280;23832;43.216;27.946;2022-09-30T03:05:44;100427.03;;;22.04;100.00
38022;BME280;23832;43.216;27.946;2022-09-30T03:07:46;100428.31;;;22.01;100.00
38022;BME280;23832;43.216;27.946;2022-09-30T03:09:48;100433.91;;;21.95;100.00
38022;BME280;23832;43.216;27.946;2022-09-30T03:11:51;100434.41;;;21.92;100.00
38022;BME280;23832;43.216;27.946;2022-09-30T03:14:01;100433.03;;;21.89;100.00
38022;BME280;23832;43.216;27.946;2022-09-30T03:16:09;100439.47;;;21.88;100.00
38022;BME280;23832;43.216;27.946;2022-09-30T03:18:19;100435.97;;;21.88;100.00
38022;BME280;23832;43.216;27.946;2022-09-30T03:20:33;100443.22;;;21.87;100.00
38022;BME280;23832;43.216;27.946;2022-09-30T03:25:00;100440.78;;;21.86;100.00
38022;BME280;23832;43.216;27.946;2022-09-30T03:27:08;100442.91;;;21.83;100.00
38022;BME280;23832;43.216;27.946;2022-09-30T03:29:15;100446.91;;;21.81;100.00
38022;BME280;23832;43.216;27.946;2022-09-30T03:31:21;100451.19;;;21.82;100.00
38022;BME280;23832;43.216;27.946;2022-09-30T03:33:27;100456.81;;;21.80;100.00
38022;BME280;23832;43.216;27.946;2022-09-30T03:35:38;100456.28;;;21.78;100.00
38022;BME280;23832;43.216;27.946;2022-09-30T03:37:45;100455.47;;;21.78;100.00
38022;BME280;23832;43.216;27.946;2022-09-30T03:39:52;100460.03;;;21.77;100.00
38022;BME280;23832;43.216;27.946;2022-09-30T03:41:56;100450.91;;;21.78;100.00
38022;BME280;23832;43.216;27.946;2022-09-30T03:44:03;100443.66;;;21.79;100.00
38022;BME280;23832;43.216;27.946;2022-09-30T03:46:10;100445.28;;;21.80;100.00
38022;BME280;23832;43.216;27.946;2022-09-30T03:48:14;100452.53;;;21.79;100.00
38022;BME280;23832;43.216;27.946;2022-09-30T03:50:17;100454.41;;;21.79;100.00
38022;BME280;23832;43.216;27.946;2022-09-30T03:52:20;100450.91;;;21.78;100.00
38022;BME280;23832;43.216;27.946;2022-09-30T03:54:25;100460.81;;;21.78;100.00
38022;BME280;23832;43.216;27.946;2022-09-30T03:56:27;100466.44;;;21.76;100.00
38022;BME280;23832;43.216;27.946;2022-09-30T03:58:30;100469.38;;;21.75;100.00
38022;BME280;23832;43.216;27.946;2022-09-30T04:00:34;100473.09;;;21.74;100.00
38022;BME280;23832;43.216;27.946;2022-09-30T04:02:36;100472.56;;;21.72;100.00
38022;BME280;23832;43.216;27.946;2022-09-30T04:04:38;100484.59;;;21.69;100.00
38022;BME280;23832;43.216;27.946;2022-09-30T04:06:41;100492.91;;;21.68;100.00
38022;BME280;23832;43.216;27.946;2022-09-30T04:08:42;100474.13;;;21.68;100.00
38022;BME280;23832;43.216;27.946;2022-09-30T04:10:44;100476.81;;;21.68;100.00
38022;BME280;23832;43.216;27.946;2022-09-30T04:12:46;100476.25;;;21.66;100.00
38022;BME280;23832;43.216;27.946;2022-09-30T04:14:47;100476.25;;;21.66;100.00
38022;BME280;23832;43.216;27.946;2022-09-30T04:16:50;100487.47;;;21.63;100.00
38022;BME280;23832;43.216;27.946;2022-09-30T04:18:52;100489.34;;;21.62;100.00
38022;BME280;23832;43.216;27.946;2022-09-30T04:20:56;100500.31;;;21.61;100.00
38022;BME280;23832;43.216;27.946;2022-09-30T04:22:58;100493.59;;;21.58;100.00
38022;BME280;23832;43.216;27.946;2022-09-30T04:25:00;100503.50;;;21.58;100.00
38022;BME280;23832;43.216;27.946;2022-09-30T04:27:02;100501.88;;;21.57;100.00
38022;BME280;23832;43.216;27.946;2022-09-30T04:29:03;100504.00;;;21.54;100.00
38022;BME280;23832;43.216;27.946;2022-09-30T04:31:05;100517.41;;;21.54;100.00
38022;BME280;23832;43.216;27.946;2022-09-30T04:33:11;100514.97;;;21.53;100.00
38022;BME280;23832;43.216;27.946;2022-09-30T04:35:13;100520.09;;;21.54;100.00
38022;BME280;23832;43.216;27.946;2022-09-30T04:37:14;100512.84;;;21.55;100.00
38022;BME280;23832;43.216;27.946;2022-09-30T04:39:16;100524.97;;;21.58;100.00
38022;BME280;23832;43.216;27.946;2022-09-30T04:41:18;100527.41;;;21.59;100.00
38022;BME280;23832;43.216;27.946;2022-09-30T04:43:20;100528.75;;;21.62;100.00
38022;BME280;23832;43.216;27.946;2022-09-30T04:45:22;100540.06;;;21.64;100.00
38022;BME280;23832;43.216;27.946;2022-09-30T04:47:25;100538.75;;;21.66;100.00
38022;BME280;23832;43.216;27.946;2022-09-30T04:49:28;100549.03;;;21.74;100.00
38022;BME280;23832;43.216;27.946;2022-09-30T04:51:29;100551.06;;;21.84;100.00
38022;BME280;23832;43.216;27.946;2022-09-30T04:53:31;100560.88;;;21.95;100.00
38022;BME280;23832;43.216;27.946;2022-09-30T04:55:33;100558.06;;;22.07;100.00
38022;BME280;23832;43.216;27.946;2022-09-30T04:57:35;100561.44;;;22.19;100.00
38022;BME280;23832;43.216;27.946;2022-09-30T04:59:37;100559.19;;;22.33;100.00
38022;BME280;23832;43.216;27.946;2022-09-30T05:01:38;100549.09;;;22.45;100.00
38022;BME280;23832;43.216;27.946;2022-09-30T05:03:42;100556.75;;;22.58;100.00
38022;BME280;23832;43.216;27.946;2022-09-30T05:07:48;100559.91;;;22.82;100.00
38022;BME280;23832;43.216;27.946;2022-09-30T05:09:50;100558.19;;;22.93;100.00
38022;BME280;23832;43.216;27.946;2022-09-30T05:11:52;100549.66;;;23.06;100.00
38022;BME280;23832;43.216;27.946;2022-09-30T05:13:54;100544.09;;;23.18;100.00
38022;BME280;23832;43.216;27.946;2022-09-30T05:15:55;100542.59;;;23.32;100.00
38022;BME280;23832;43.216;27.946;2022-09-30T05:17:57;100544.03;;;23.50;100.00
38022;BME280;23832;43.216;27.946;2022-09-30T05:19:59;100535.28;;;23.65;100.00
38022;BME280;23832;43.216;27.946;2022-09-30T05:22:01;100541.00;;;23.78;100.00
38022;BME280;23832;43.216;27.946;2022-09-30T05:24:04;100540.53;;;23.92;100.00
38022;BME280;23832;43.216;27.946;2022-09-30T05:26:06;100548.09;;;24.05;100.00
38022;BME280;23832;43.216;27.946;2022-09-30T05:28:08;100548.66;;;24.17;100.00
38022;BME280;23832;43.216;27.946;2022-09-30T05:30:10;100548.22;;;24.36;100.00
38022;BME280;23832;43.216;27.946;2022-09-30T05:32:11;100546.09;;;24.53;100.00
38022;BME280;23832;43.216;27.946;2022-09-30T05:34:13;100549.91;;;24.72;100.00
38022;BME280;23832;43.216;27.946;2022-09-30T05:36:16;100551.78;;;24.92;100.00
38022;BME280;23832;43.216;27.946;2022-09-30T05:38:17;100546.13;;;25.14;100.00
38022;BME280;23832;43.216;27.946;2022-09-30T05:40:21;100544.47;;;25.33;100.00
38022;BME280;23832;43.216;27.946;2022-09-30T05:42:22;100542.00;;;25.52;100.00
38022;BME280;23832;43.216;27.946;2022-09-30T05:44:24;100541.47;;;25.70;100.00
38022;BME280;23832;43.216;27.946;2022-09-30T05:46:26;100531.09;;;25.88;100.00
38022;BME280;23832;43.216;27.946;2022-09-30T05:48:28;100529.66;;;26.06;100.00
38022;BME280;23832;43.216;27.946;2022-09-30T05:50:30;100526.88;;;26.26;100.00
38022;BME280;23832;43.216;27.946;2022-09-30T05:52:31;100531.66;;;26.44;100.00
38022;BME280;23832;43.216;27.946;2022-09-30T05:54:33;100530.47;;;26.61;100.00
38022;BME280;23832;43.216;27.946;2022-09-30T05:56:36;100524.91;;;26.76;100.00
38022;BME280;23832;43.216;27.946;2022-09-30T05:58:38;100526.41;;;26.92;100.00
38022;BME280;23832;43.216;27.946;2022-09-30T06:00:41;100530.09;;;27.06;100.00
38022;BME280;23832;43.216;27.946;2022-09-30T06:02:43;100531.66;;;27.12;100.00
38022;BME280;23832;43.216;27.946;2022-09-30T06:04:45;100533.00;;;27.15;100.00
38022;BME280;23832;43.216;27.946;2022-09-30T06:06:46;100533.03;;;27.10;100.00
38022;BME280;23832;43.216;27.946;2022-09-30T06:08:48;100540.66;;;27.03;100.00
38022;BME280;23832;43.216;27.946;2022-09-30T06:10:49;100543.63;;;27.01;100.00
38022;BME280;23832;43.216;27.946;2022-09-30T06:12:53;100552.84;;;27.00;100.00
38022;BME280;23832;43.216;27.946;2022-09-30T06:14:54;100560.97;;;27.05;100.00
38022;BME280;23832;43.216;27.946;2022-09-30T06:16:56;100560.06;;;27.15;100.00
38022;BME280;23832;43.216;27.946;2022-09-30T06:18:59;100552.56;;;27.31;100.00
38022;BME280;23832;43.216;27.946;2022-09-30T06:21:02;100556.44;;;27.49;100.00
38022;BME280;23832;43.216;27.946;2022-09-30T06:23:04;100553.84;;;27.67;100.00
38022;BME280;23832;43.216;27.946;2022-09-30T06:25:06;100557.69;;;27.85;100.00
38022;BME280;23832;43.216;27.946;2022-09-30T06:27:07;100565.34;;;28.02;100.00
38022;BME280;23832;43.216;27.946;2022-09-30T06:29:11;100562.72;;;28.16;100.00
38022;BME280;23832;43.216;27.946;2022-09-30T06:31:13;100563.38;;;28.26;100.00
38022;BME280;23832;43.216;27.946;2022-09-30T06:33:15;100566.28;;;28.35;100.00
38022;BME280;23832;43.216;27.946;2022-09-30T06:35:17;100568.09;;;28.40;100.00
38022;BME280;23832;43.216;27.946;2022-09-30T06:37:20;100572.34;;;28.46;100.00
38022;BME280;23832;43.216;27.946;2022-09-30T06:39:21;100589.06;;;28.53;98.81
38022;BME280;23832;43.216;27.946;2022-09-30T06:41:23;100581.69;;;28.59;93.80
38022;BME280;23832;43.216;27.946;2022-09-30T06:43:26;100596.75;;;28.65;97.07
38022;BME280;23832;43.216;27.946;2022-09-30T06:45:30;100587.75;;;28.69;92.17
38022;BME280;23832;43.216;27.946;2022-09-30T06:47:34;100586.56;;;28.75;88.97
38022;BME280;23832;43.216;27.946;2022-09-30T06:49:36;100588.41;;;28.80;85.42
38022;BME280;23832;43.216;27.946;2022-09-30T06:51:37;100599.09;;;28.90;90.26
38022;BME280;23832;43.216;27.946;2022-09-30T06:53:39;100602.69;;;29.04;91.71
38022;BME280;23832;43.216;27.946;2022-09-30T06:55:42;100611.88;;;29.22;89.74
38022;BME280;23832;43.216;27.946;2022-09-30T06:57:44;100627.31;;;29.40;89.78
38022;BME280;23832;43.216;27.946;2022-09-30T06:59:47;100624.25;;;29.61;90.00
38022;BME280;23832;43.216;27.946;2022-09-30T07:01:50;100623.84;;;29.81;88.10
38022;BME280;23832;43.216;27.946;2022-09-30T07:03:52;100619.13;;;30.01;84.47
38022;BME280;23832;43.216;27.946;2022-09-30T07:05:57;100623.66;;;30.19;81.24
38022;BME280;23832;43.216;27.946;2022-09-30T07:07:59;100623.03;;;30.36;78.27
38022;BME280;23832;43.216;27.946;2022-09-30T07:10:01;100632.78;;;30.50;74.93
38022;BME280;23832;43.216;27.946;2022-09-30T07:12:03;100635.44;;;30.64;72.70
38022;BME280;23832;43.216;27.946;2022-09-30T07:14:05;100628.72;;;30.75;71.32
38022;BME280;23832;43.216;27.946;2022-09-30T07:16:07;100635.41;;;30.92;69.52
38022;BME280;23832;43.216;27.946;2022-09-30T07:18:12;100638.69;;;31.02;64.54
38022;BME280;23832;43.216;27.946;2022-09-30T07:20:15;100643.38;;;31.11;61.14
38022;BME280;23832;43.216;27.946;2022-09-30T07:22:17;100630.56;;;31.11;57.47
38022;BME280;23832;43.216;27.946;2022-09-30T07:24:29;100639.81;;;31.01;52.93
38022;BME280;23832;43.216;27.946;2022-09-30T07:26:30;100649.94;;;30.87;52.68
38022;BME280;23832;43.216;27.946;2022-09-30T07:28:33;100635.28;;;30.74;53.77
38022;BME280;23832;43.216;27.946;2022-09-30T07:30:35;100635.88;;;30.71;55.27
38022;BME280;23832;43.216;27.946;2022-09-30T07:32:37;100640.72;;;30.74;54.01
38022;BME280;23832;43.216;27.946;2022-09-30T07:34:40;100629.13;;;30.69;52.05
38022;BME280;23832;43.216;27.946;2022-09-30T07:36:43;100630.44;;;30.71;52.80
38022;BME280;23832;43.216;27.946;2022-09-30T07:38:45;100626.16;;;30.79;54.22
38022;BME280;23832;43.216;27.946;2022-09-30T07:40:52;100623.19;;;30.89;53.42
38022;BME280;23832;43.216;27.946;2022-09-30T07:42:54;100627.28;;;31.00;52.70
38022;BME280;23832;43.216;27.946;2022-09-30T07:44:57;100636.63;;;31.08;52.13
38022;BME280;23832;43.216;27.946;2022-09-30T07:46:59;100634.34;;;31.01;49.27
38022;BME280;23832;43.216;27.946;2022-09-30T07:49:00;100635.75;;;30.99;51.28
38022;BME280;23832;43.216;27.946;2022-09-30T07:51:08;100633.97;;;30.94;50.82
38022;BME280;23832;43.216;27.946;2022-09-30T07:53:10;100634.22;;;30.84;50.93
38022;BME280;23832;43.216;27.946;2022-09-30T07:55:11;100627.91;;;30.75;50.81
38022;BME280;23832;43.216;27.946;2022-09-30T07:57:13;100625.19;;;30.75;52.13
38022;BME280;23832;43.216;27.946;2022-09-30T07:59:15;100629.91;;;30.83;53.33
38022;BME280;23832;43.216;27.946;2022-09-30T08:01:17;100627.09;;;30.97;53.70
38022;BME280;23832;43.216;27.946;2022-09-30T08:03:19;100636.50;;;31.13;54.24
38022;BME280;23832;43.216;27.946;2022-09-30T08:05:20;100638.13;;;31.37;54.34
38022;BME280;23832;43.216;27.946;2022-09-30T08:07:23;100638.06;;;31.59;53.56
38022;BME280;23832;43.216;27.946;2022-09-30T08:09:26;100641.75;;;31.85;52.77
38022;BME280;23832;43.216;27.946;2022-09-30T08:11:31;100646.63;;;32.06;50.29
38022;BME280;23832;43.216;27.946;2022-09-30T08:13:33;100645.69;;;32.19;48.94
38022;BME280;23832;43.216;27.946;2022-09-30T08:15:34;100636.41;;;32.29;47.81
38022;BME280;23832;43.216;27.946;2022-09-30T08:17:38;100632.75;;;32.42;48.10
38022;BME280;23832;43.216;27.946;2022-09-30T08:19:39;100631.03;;;32.55;47.04
38022;BME280;23832;43.216;27.946;2022-09-30T08:21:43;100629.91;;;32.64;46.07
38022;BME280;23832;43.216;27.946;2022-09-30T08:23:47;100632.97;;;32.71;46.48
38022;BME280;23832;43.216;27.946;2022-09-30T08:25:48;100642.59;;;32.86;46.87
38022;BME280;23832;43.216;27.946;2022-09-30T08:27:50;100635.19;;;33.04;46.20
38022;BME280;23832;43.216;27.946;2022-09-30T08:29:52;100640.47;;;33.26;45.82
38022;BME280;23832;43.216;27.946;2022-09-30T08:31:53;100647.69;;;33.40;43.60
38022;BME280;23832;43.216;27.946;2022-09-30T08:33:55;100641.88;;;33.41;42.83
38022;BME280;23832;43.216;27.946;2022-09-30T08:36:00;100639.47;;;33.40;42.98
38022;BME280;23832;43.216;27.946;2022-09-30T08:38:01;100649.75;;;33.43;42.77
38022;BME280;23832;43.216;27.946;2022-09-30T08:40:05;100646.88;;;33.30;43.00
38022;BME280;23832;43.216;27.946;2022-09-30T08:42:11;100652.34;;;33.30;43.60
38022;BME280;23832;43.216;27.946;2022-09-30T08:44:25;100649.44;;;33.36;43.40
38022;BME280;23832;43.216;27.946;2022-09-30T08:46:36;100650.41;;;33.40;42.78
38022;BME280;23832;43.216;27.946;2022-09-30T08:48:44;100664.84;;;33.49;43.24
38022;BME280;23832;43.216;27.946;2022-09-30T08:50:52;100661.59;;;33.64;43.11
38022;BME280;23832;43.216;27.946;2022-09-30T08:52:58;100663.78;;;33.79;43.20
38022;BME280;23832;43.216;27.946;2022-09-30T08:55:00;100673.06;;;33.96;42.92
38022;BME280;23832;43.216;27.946;2022-09-30T08:57:03;100674.09;;;34.12;42.87
38022;BME280;23832;43.216;27.946;2022-09-30T08:59:06;100680.28;;;34.30;42.17
38022;BME280;23832;43.216;27.946;2022-09-30T09:01:12;100682.47;;;34.45;41.81
38022;BME280;23832;43.216;27.946;2022-09-30T09:03:16;100683.97;;;34.63;42.04
38022;BME280;23832;43.216;27.946;2022-09-30T09:05:24;100674.81;;;34.80;41.61
38022;BME280;23832;43.216;27.946;2022-09-30T09:07:32;100669.22;;;34.97;41.01
38022;BME280;23832;43.216;27.946;2022-09-30T09:09:40;100690.25;;;35.06;39.49
38022;BME280;23832;43.216;27.946;2022-09-30T09:11:49;100682.03;;;35.06;39.62
38022;BME280;23832;43.216;27.946;2022-09-30T09:13:57;100686.38;;;35.07;39.86
38022;BME280;23832;43.216;27.946;2022-09-30T09:16:04;100684.44;;;35.07;39.34
38022;BME280;23832;43.216;27.946;2022-09-30T09:18:23;100685.88;;;35.05;39.46
38022;BME280;23832;43.216;27.946;2022-09-30T09:20:28;100687.81;;;35.04;39.27
38022;BME280;23832;43.216;27.946;2022-09-30T09:22:32;100686.56;;;35.02;39.72
38022;BME280;23832;43.216;27.946;2022-09-30T09:24:35;100688.31;;;35.06;39.93
38022;BME280;23832;43.216;27.946;2022-09-30T09:26:38;100690.44;;;35.01;39.21
38022;BME280;23832;43.216;27.946;2022-09-30T09:28:41;100685.66;;;34.97;39.72
38022;BME280;23832;43.216;27.946;2022-09-30T09:30:50;100680.97;;;34.98;40.29
38022;BME280;23832;43.216;27.946;2022-09-30T09:32:54;100680.63;;;34.99;40.11
38022;BME280;23832;43.216;27.946;2022-09-30T09:34:57;100693.00;;;35.06;40.23
38022;BME280;23832;43.216;27.946;2022-09-30T09:37:04;100689.47;;;35.17;40.29
38022;BME280;23832;43.216;27.946;2022-09-30T09:39:14;100687.56;;;35.30;40.34
38022;BME280;23832;43.216;27.946;2022-09-30T09:41:22;100688.91;;;35.45;40.15
38022;BME280;23832;43.216;27.946;2022-09-30T09:43:27;100677.97;;;35.57;39.85
38022;BME280;23832;43.216;27.946;2022-09-30T09:45:34;100675.81;;;35.75;40.28
38022;BME280;23832;43.216;27.946;2022-09-30T09:47:43;100679.97;;;35.93;39.92
38022;BME280;23832;43.216;27.946;2022-09-30T09:49:51;100671.94;;;36.13;39.69
38022;BME280;23832;43.216;27.946;2022-09-30T09:52:00;100670.81;;;36.26;38.05
38022;BME280;23832;43.216;27.946;2022-09-30T09:54:07;100665.09;;;36.31;37.62
38022;BME280;23832;43.216;27.946;2022-09-30T09:56:12;100669.88;;;36.34;38.23
38022;BME280;23832;43.216;27.946;2022-09-30T09:58:17;100666.81;;;36.35;37.32
38022;BME280;23832;43.216;27.946;2022-09-30T10:00:23;100678.59;;;36.36;37.71
38022;BME280;23832;43.216;27.946;2022-09-30T10:02:59;100668.53;;;36.40;38.38
38022;BME280;23832;43.216;27.946;2022-09-30T10:05:03;100669.88;;;36.34;38.71
38022;BME280;23832;43.216;27.946;2022-09-30T10:07:11;100669.78;;;36.18;39.95
38022;BME280;23832;43.216;27.946;2022-09-30T10:11:39;100664.19;;;36.02;41.41
38022;BME280;23832;43.216;27.946;2022-09-30T10:13:41;100665.34;;;35.89;41.19
38022;BME280;23832;43.216;27.946;2022-09-30T10:15:43;100670.69;;;35.73;40.89
38022;BME280;23832;43.216;27.946;2022-09-30T10:17:49;100668.69;;;35.49;41.39
38022;BME280;23832;43.216;27.946;2022-09-30T10:19:57;100676.41;;;35.35;42.12
38022;BME280;23832;43.216;27.946;2022-09-30T10:24:18;100674.09;;;35.25;43.53
38022;BME280;23832;43.216;27.946;2022-09-30T10:26:20;100668.97;;;35.23;43.86
38022;BME280;23832;43.216;27.946;2022-09-30T10:28:24;100681.63;;;35.28;43.83
38022;BME280;23832;43.216;27.946;2022-09-30T10:30:29;100673.31;;;35.24;43.44
38022;BME280;23832;43.216;27.946;2022-09-30T10:32:31;100674.31;;;35.20;43.51
38022;BME280;23832;43.216;27.946;2022-09-30T10:34:33;100667.41;;;35.14;43.75
38022;BME280;23832;43.216;27.946;2022-09-30T10:36:38;100670.66;;;35.16;43.31
38022;BME280;23832;43.216;27.946;2022-09-30T10:38:55;100667.03;;;35.24;43.83
38022;BME280;23832;43.216;27.946;2022-09-30T10:40:58;100659.50;;;35.33;42.58
38022;BME280;23832;43.216;27.946;2022-09-30T10:43:01;100652.69;;;35.39;41.73
38022;BME280;23832;43.216;27.946;2022-09-30T10:45:04;100653.72;;;35.47;41.72
38022;BME280;23832;43.216;27.946;2022-09-30T10:47:09;100660.94;;;35.51;40.17
38022;BME280;23832;43.216;27.946;2022-09-30T10:49:19;100647.81;;;35.57;39.47
38022;BME280;23832;43.216;27.946;2022-09-30T10:51:26;100656.28;;;35.64;40.04